Time;durP1;ratioP1;P1;durP2;ratioP2;P2;SDS_P1;SDS_P2;PMS_P1;PMS_P2;Temp;Humidity;BMP_temperature;BMP_pressure;BME280_temperature;BME280_humidity;BME280_pressure;Samples;Min_cycle;Max_cycle;Signal;HPM_P1;HPM_P2
2023/05/29 00:03:01;;;;;;;15.25;10.23;;;;;;;;;;9505874;30;20576;-66
2023/05/29 00:07:55;;;;;;;14.95;10.15;;;;;;;;;;9503100;30;20068;-67
2023/05/29 00:12:50;;;;;;;10.05;9.15;;;;;;;;;;9518319;30;20055;-67
2023/05/29 00:17:44;;;;;;;11.15;9.77;;;;;;;;;;9505707;30;20071;-66
2023/05/29 00:22:37;;;;;;;12.32;9.68;;;;;;;;;;9505893;30;20113;-67
2023/05/29 00:27:35;;;;;;;10.88;8.73;;;;;;;;;;9502584;30;20071;-67
2023/05/29 00:32:28;;;;;;;9.82;8.75;;;;;;;;;;9503664;30;20072;-67
2023/05/29 00:37:21;;;;;;;11.02;9.55;;;;;;;;;;9502254;30;20519;-67
2023/05/29 00:42:15;;;;;;;13.40;9.93;;;;;;;;;;9503968;30;20060;-67
2023/05/29 00:47:08;;;;;;;14.23;9.63;;;;;;;;;;9501175;30;20131;-67
2023/05/29 00:52:01;;;;;;;15.43;10.13;;;;;;;;;;9502409;30;20136;-67
2023/05/29 00:56:54;;;;;;;13.13;10.32;;;;;;;;;;9487886;30;20085;-68
2023/05/29 01:01:50;;;;;;;16.67;11.27;;;;;;;;;;9503065;30;20570;-67
2023/05/29 01:06:45;;;;;;;16.00;10.98;;;;;;;;;;9515769;30;20044;-67
2023/05/29 01:11:58;;;;;;;12.18;10.95;;;;;;;;;;9498369;30;20092;-68
2023/05/29 01:17:00;;;;;;;19.67;10.13;;;;;;;;;;9491247;30;20056;-68
2023/05/29 01:22:04;;;;;;;13.27;8.80;;;;;;;;;;9515095;30;20180;-68
2023/05/29 01:27:10;;;;;;;13.52;9.98;;;;;;;;;;9517441;30;20084;-67
2023/05/29 01:32:05;;;;;;;14.75;9.30;;;;;;;;;;9493940;30;20454;-67
2023/05/29 01:36:59;;;;;;;11.38;10.18;;;;;;;;;;9502662;30;20402;-67
2023/05/29 01:41:55;;;;;;;17.85;9.35;;;;;;;;;;9495490;30;20428;-67
2023/05/29 01:46:49;;;;;;;24.70;10.95;;;;;;;;;;9503299;30;20048;-67
2023/05/29 01:51:42;;;;;;;13.68;9.27;;;;;;;;;;9500542;30;20060;-67
2023/05/29 01:56:35;;;;;;;13.68;9.60;;;;;;;;;;9508492;30;20139;-68
2023/05/29 02:01:28;;;;;;;15.88;10.88;;;;;;;;;;9498903;30;20060;-67
2023/05/29 02:06:22;;;;;;;12.65;9.95;;;;;;;;;;9509154;30;20048;-67
2023/05/29 02:11:15;;;;;;;15.40;10.20;;;;;;;;;;9502779;30;20067;-67
2023/05/29 02:16:08;;;;;;;10.85;9.75;;;;;;;;;;9508459;30;20067;-67
2023/05/29 02:21:02;;;;;;;14.82;10.70;;;;;;;;;;9507998;30;20118;-68
2023/05/29 02:25:55;;;;;;;13.38;9.18;;;;;;;;;;9506236;30;20102;-67
2023/05/29 02:30:50;;;;;;;11.68;9.35;;;;;;;;;;9509199;30;20556;-68
2023/05/29 02:35:44;;;;;;;10.10;8.95;;;;;;;;;;9506786;30;20079;-67
2023/05/29 02:40:37;;;;;;;12.25;10.23;;;;;;;;;;9507404;30;20048;-67
2023/05/29 02:45:30;;;;;;;15.85;10.05;;;;;;;;;;9515750;30;20052;-68
2023/05/29 02:50:23;;;;;;;14.55;10.38;;;;;;;;;;9500431;30;20078;-68
2023/05/29 02:55:16;;;;;;;17.98;9.98;;;;;;;;;;9507979;30;20052;-68
2023/05/29 03:00:12;;;;;;;14.35;9.43;;;;;;;;;;9503205;30;20052;-67
2023/05/29 03:05:06;;;;;;;19.10;9.55;;;;;;;;;;9504267;30;20147;-68
2023/05/29 03:09:59;;;;;;;11.02;9.65;;;;;;;;;;9506690;30;20084;-68
2023/05/29 03:14:56;;;;;;;15.18;12.23;;;;;;;;;;9507883;30;20056;-68
2023/05/29 03:19:50;;;;;;;15.52;12.98;;;;;;;;;;9505075;30;20060;-68
2023/05/29 03:24:44;;;;;;;15.50;11.68;;;;;;;;;;9505701;30;20060;-68
2023/05/29 03:29:39;;;;;;;14.90;11.65;;;;;;;;;;9508455;30;20117;-68
2023/05/29 03:34:34;;;;;;;14.73;10.80;;;;;;;;;;9493200;30;20424;-68
2023/05/29 03:39:28;;;;;;;14.57;10.75;;;;;;;;;;9505182;30;20060;-68
2023/05/29 03:44:23;;;;;;;13.45;9.77;;;;;;;;;;9482376;30;20048;-68
2023/05/29 03:49:16;;;;;;;13.05;9.50;;;;;;;;;;9504779;30;20140;-68
2023/05/29 03:54:10;;;;;;;13.77;9.50;;;;;;;;;;9504252;30;20097;-67
2023/05/29 03:59:03;;;;;;;12.02;9.98;;;;;;;;;;9504369;30;20088;-68
2023/05/29 04:03:56;;;;;;;14.48;9.98;;;;;;;;;;9503419;30;20147;-67
2023/05/29 04:08:50;;;;;;;20.50;10.38;;;;;;;;;;9502782;30;20094;-67
2023/05/29 04:13:43;;;;;;;21.73;11.90;;;;;;;;;;9504444;30;20048;-67
2023/05/29 04:18:36;;;;;;;15.75;9.30;;;;;;;;;;9505165;30;20052;-67
2023/05/29 04:23:30;;;;;;;13.38;10.30;;;;;;;;;;9503726;30;20113;-66
2023/05/29 04:28:24;;;;;;;18.63;10.30;;;;;;;;;;9517593;30;20115;-67
2023/05/29 04:33:20;;;;;;;11.40;9.63;;;;;;;;;;9501417;30;20064;-68
2023/05/29 04:38:15;;;;;;;12.25;10.00;;;;;;;;;;9502609;30;20052;-68
2023/05/29 04:43:10;;;;;;;12.98;9.65;;;;;;;;;;9502870;30;20051;-67
2023/05/29 04:48:32;;;;;;;16.50;11.80;;;;;;;;;;9504538;30;20159;-67
2023/05/29 04:53:27;;;;;;;11.98;10.77;;;;;;;;;;9518092;30;20098;-67
2023/05/29 04:58:21;;;;;;;18.33;10.05;;;;;;;;;;9501968;30;20072;-67
2023/05/29 05:03:16;;;;;;;14.88;11.65;;;;;;;;;;9516292;30;20060;-67
2023/05/29 05:08:11;;;;;;;14.88;11.70;;;;;;;;;;9501297;30;20117;-67
2023/05/29 05:13:07;;;;;;;17.50;11.70;;;;;;;;;;9484548;30;20057;-66
2023/05/29 05:18:01;;;;;;;15.40;11.38;;;;;;;;;;9484755;30;20056;-67
2023/05/29 05:22:59;;;;;;;18.33;10.52;;;;;;;;;;9500955;30;20059;-75
2023/05/29 05:27:52;;;;;;;20.70;11.57;;;;;;;;;;9499580;30;20060;-71
2023/05/29 05:32:48;;;;;;;15.18;12.27;;;;;;;;;;9483444;30;20072;-72
2023/05/29 05:37:42;;;;;;;16.60;10.88;;;;;;;;;;9496734;30;20072;-72
2023/05/29 05:42:36;;;;;;;15.52;12.20;;;;;;;;;;9500836;30;20539;-72
2023/05/29 05:47:35;;;;;;;22.00;12.50;;;;;;;;;;9500928;30;20106;-72
2023/05/29 05:52:31;;;;;;;13.98;11.98;;;;;;;;;;9498625;30;20064;-72
2023/05/29 05:57:27;;;;;;;19.63;13.43;;;;;;;;;;9512201;30;20052;-72
2023/05/29 06:02:22;;;;;;;20.10;12.95;;;;;;;;;;9498188;30;20117;-74
2023/05/29 06:07:16;;;;;;;16.25;13.13;;;;;;;;;;9498725;30;20052;-73
2023/05/29 06:12:11;;;;;;;15.88;13.45;;;;;;;;;;9521515;30;20044;-74
2023/05/29 06:17:14;;;;;;;18.52;15.15;;;;;;;;;;9512189;30;20474;-74
2023/05/29 06:22:08;;;;;;;18.52;15.05;;;;;;;;;;9520448;30;20076;-74
2023/05/29 06:27:04;;;;;;;20.98;15.40;;;;;;;;;;9504702;30;20052;-73
2023/05/29 06:31:58;;;;;;;19.52;15.02;;;;;;;;;;9505942;30;20099;-74
2023/05/29 06:36:51;;;;;;;19.50;16.80;;;;;;;;;;9519510;30;20106;-68
2023/05/29 06:41:44;;;;;;;20.77;16.90;;;;;;;;;;9522943;30;20080;-68
2023/05/29 06:46:43;;;;;;;22.45;16.35;;;;;;;;;;9522498;30;20416;-68
2023/05/29 06:51:36;;;;;;;22.20;17.25;;;;;;;;;;9513532;30;20150;-69
2023/05/29 06:56:31;;;;;;;22.88;15.55;;;;;;;;;;9501015;30;20052;-68
2023/05/29 07:01:25;;;;;;;17.70;15.27;;;;;;;;;;9522962;30;20471;-68
2023/05/29 07:06:22;;;;;;;21.03;14.83;;;;;;;;;;9521655;30;20076;-68
2023/05/29 07:11:16;;;;;;;19.02;15.55;;;;;;;;;;9506584;30;20056;-68
2023/05/29 07:16:09;;;;;;;21.63;14.27;;;;;;;;;;9505996;30;20063;-67
2023/05/29 07:21:27;;;;;;;15.48;13.80;;;;;;;;;;9520768;30;20060;-68
2023/05/29 07:26:22;;;;;;;15.65;13.95;;;;;;;;;;9506554;30;20060;-68
2023/05/29 07:31:15;;;;;;;17.90;14.43;;;;;;;;;;9505002;30;20056;-68
2023/05/29 07:36:09;;;;;;;15.32;11.35;;;;;;;;;;9505436;30;20083;-67
2023/05/29 07:41:02;;;;;;;15.27;11.38;;;;;;;;;;9506042;30;20076;-68
2023/05/29 07:45:58;;;;;;;19.58;11.80;;;;;;;;;;9489748;30;20059;-68
2023/05/29 07:50:51;;;;;;;18.67;12.98;;;;;;;;;;9519696;30;20412;-68
2023/05/29 07:55:45;;;;;;;15.80;13.48;;;;;;;;;;9509089;30;20095;-68
2023/05/29 08:00:39;;;;;;;23.65;12.10;;;;;;;;;;9505010;30;20052;-68
2023/05/29 08:05:33;;;;;;;17.15;12.45;;;;;;;;;;9504512;30;20094;-68
2023/05/29 08:10:31;;;;;;;13.68;12.27;;;;;;;;;;9504403;30;20117;-68
2023/05/29 08:15:26;;;;;;;17.40;12.40;;;;;;;;;;9503398;30;20090;-68
2023/05/29 08:20:20;;;;;;;17.40;11.15;;;;;;;;;;9504854;30;20428;-68
2023/05/29 08:25:14;;;;;;;15.98;13.27;;;;;;;;;;9504387;30;20106;-68
2023/05/29 08:30:11;;;;;;;15.90;12.20;;;;;;;;;;9516643;30;20063;-68
2023/05/29 08:35:05;;;;;;;15.35;12.68;;;;;;;;;;9504585;30;20087;-68
2023/05/29 08:39:59;;;;;;;16.65;14.70;;;;;;;;;;9504812;30;20432;-68
2023/05/29 08:44:59;;;;;;;16.23;13.02;;;;;;;;;;9516146;30;20056;-68
2023/05/29 08:49:54;;;;;;;19.85;13.90;;;;;;;;;;9473671;30;20062;-69
2023/05/29 08:54:47;;;;;;;13.48;12.02;;;;;;;;;;9509389;30;20070;-68
2023/05/29 08:59:43;;;;;;;19.30;12.60;;;;;;;;;;9499621;29;20052;-68
2023/05/29 09:04:37;;;;;;;14.98;13.32;;;;;;;;;;9497187;30;20136;-67
2023/05/29 09:09:31;;;;;;;18.00;13.00;;;;;;;;;;9506975;30;20059;-68
2023/05/29 09:14:44;;;;;;;17.20;12.23;;;;;;;;;;9498364;30;20071;-67
2023/05/29 09:19:40;;;;;;;17.45;12.38;;;;;;;;;;9497069;30;20051;-68
2023/05/29 09:24:35;;;;;;;15.00;11.75;;;;;;;;;;9504637;30;20064;-68
2023/05/29 09:29:32;;;;;;;12.57;11.18;;;;;;;;;;9506806;30;20048;-68
2023/05/29 09:34:27;;;;;;;18.08;12.07;;;;;;;;;;9507861;30;20064;-68
2023/05/29 09:39:21;;;;;;;17.63;11.43;;;;;;;;;;9505357;30;20071;-68
2023/05/29 09:44:15;;;;;;;13.98;11.50;;;;;;;;;;9503362;30;20057;-69
2023/05/29 09:49:14;;;;;;;14.45;10.05;;;;;;;;;;9507621;30;20044;-68
2023/05/29 09:54:16;;;;;;;14.95;9.60;;;;;;;;;;9494922;30;20083;-68
2023/05/29 09:59:13;;;;;;;14.05;12.55;;;;;;;;;;9499401;30;20463;-69
2023/05/29 10:04:07;;;;;;;15.27;10.57;;;;;;;;;;9500752;30;20460;-67
2023/05/29 10:09:01;;;;;;;12.93;10.52;;;;;;;;;;9507829;30;20114;-67
2023/05/29 10:13:57;;;;;;;18.27;9.80;;;;;;;;;;9519866;30;20103;-67
2023/05/29 10:18:55;;;;;;;13.20;9.07;;;;;;;;;;9515655;30;20522;-66
2023/05/29 10:23:49;;;;;;;9.93;8.57;;;;;;;;;;9518572;30;20461;-67
2023/05/29 10:28:46;;;;;;;11.10;8.75;;;;;;;;;;9505500;30;20535;-66
2023/05/29 10:34:05;;;;;;;11.25;10.05;;;;;;;;;;9511505;30;20471;-67
2023/05/29 10:39:00;;;;;;;13.13;10.35;;;;;;;;;;9507596;30;20052;-67
2023/05/29 10:43:55;;;;;;;15.10;9.20;;;;;;;;;;9509603;30;20120;-67
2023/05/29 10:48:54;;;;;;;10.43;8.15;;;;;;;;;;9518535;30;20068;-67
2023/05/29 10:53:50;;;;;;;9.43;8.27;;;;;;;;;;9508873;30;20091;-67
2023/05/29 10:58:43;;;;;;;9.25;7.38;;;;;;;;;;9508894;30;20077;-67
2023/05/29 11:03:37;;;;;;;11.82;8.13;;;;;;;;;;9507406;30;20060;-67
2023/05/29 11:08:56;;;;;;;8.75;7.25;;;;;;;;;;9506208;30;20142;-66
2023/05/29 11:13:53;;;;;;;7.47;6.78;;;;;;;;;;9483550;30;20079;-69
2023/05/29 11:18:48;;;;;;;13.23;7.35;;;;;;;;;;9504571;30;20056;-68
2023/05/29 11:23:43;;;;;;;10.05;7.22;;;;;;;;;;9504145;30;20508;-67
2023/05/29 11:28:36;;;;;;;10.80;7.07;;;;;;;;;;9504468;30;20055;-68
2023/05/29 11:33:32;;;;;;;9.43;7.30;;;;;;;;;;9519201;30;20097;-68
2023/05/29 11:38:26;;;;;;;6.63;5.93;;;;;;;;;;9505820;30;20056;-67
2023/05/29 11:43:20;;;;;;;9.13;4.93;;;;;;;;;;9506541;30;20437;-68
2023/05/29 11:48:12;;;;;;;6.18;4.95;;;;;;;;;;9504053;30;20067;-67
2023/05/29 11:53:07;;;;;;;7.18;4.57;;;;;;;;;;9505260;30;20079;-67
2023/05/29 11:58:04;;;;;;;4.50;3.90;;;;;;;;;;9505505;30;20092;-67
2023/05/29 12:03:03;;;;;;;8.18;3.95;;;;;;;;;;9504086;30;20158;-68
2023/05/29 12:07:57;;;;;;;7.10;3.97;;;;;;;;;;9505043;30;20079;-67
2023/05/29 12:13:18;;;;;;;7.73;3.77;;;;;;;;;;9505319;30;20114;-67
2023/05/29 12:18:11;;;;;;;5.38;3.53;;;;;;;;;;9499670;30;20074;-66
2023/05/29 12:23:06;;;;;;;6.88;3.85;;;;;;;;;;9487288;30;20056;-66
2023/05/29 12:27:59;;;;;;;6.07;3.67;;;;;;;;;;9500334;30;20084;-66
2023/05/29 12:32:54;;;;;;;4.43;3.35;;;;;;;;;;9505912;30;20060;-66
2023/05/29 12:37:58;;;;;;;4.10;3.33;;;;;;;;;;9498401;30;20060;-67
2023/05/29 12:42:56;;;;;;;8.98;4.35;;;;;;;;;;9501559;30;20055;-66
2023/05/29 12:48:06;;;;;;;10.52;3.95;;;;;;;;;;9509158;30;20076;-66
2023/05/29 12:53:25;;;;;;;3.90;3.08;;;;;;;;;;9502269;30;20560;-67
2023/05/29 12:58:20;;;;;;;6.72;3.63;;;;;;;;;;9511255;30;20079;-66
2023/05/29 13:03:14;;;;;;;6.27;4.10;;;;;;;;;;9504662;30;20508;-67
2023/05/29 13:08:08;;;;;;;6.65;3.33;;;;;;;;;;9500904;29;20437;-66
2023/05/29 13:13:02;;;;;;;5.82;3.80;;;;;;;;;;9493292;30;20139;-69
2023/05/29 13:17:55;;;;;;;7.57;4.40;;;;;;;;;;9494731;30;20063;-63
2023/05/29 13:22:49;;;;;;;7.47;3.70;;;;;;;;;;9492568;30;20134;-63
2023/05/29 13:27:46;;;;;;;6.07;4.13;;;;;;;;;;9489785;30;20064;-62
2023/05/29 13:32:40;;;;;;;5.57;4.10;;;;;;;;;;9496592;30;20064;-63
2023/05/29 13:37:36;;;;;;;;;;;;;;;;;;9491105;30;20056;-63
2023/05/29 13:42:30;;;;;;;7.15;3.67;;;;;;;;;;9489565;29;19926;-64
2023/05/29 13:47:26;;;;;;;8.18;4.53;;;;;;;;;;9490094;29;20406;-63
2023/05/29 13:52:20;;;;;;;13.13;4.30;;;;;;;;;;9503038;30;20065;-63
2023/05/29 13:57:14;;;;;;;5.18;4.13;;;;;;;;;;9523234;30;20090;-63
2023/05/29 14:02:08;;;;;;;9.50;4.70;;;;;;;;;;9507232;30;20056;-63
2023/05/29 14:07:01;;;;;;;4.90;3.63;;;;;;;;;;9504485;30;20060;-64
2023/05/29 14:12:03;;;;;;;4.45;3.70;;;;;;;;;;9509733;29;20053;-63
2023/05/29 14:16:56;;;;;;;6.05;4.10;;;;;;;;;;9507234;30;20123;-63
2023/05/29 14:21:51;;;;;;;9.13;4.47;;;;;;;;;;9503000;30;20066;-64
2023/05/29 14:26:46;;;;;;;8.40;4.25;;;;;;;;;;9508511;30;20489;-63
2023/05/29 14:31:43;;;;;;;9.93;4.25;;;;;;;;;;9507026;30;20068;-64
2023/05/29 14:36:37;;;;;;;5.55;3.92;;;;;;;;;;9502221;30;20568;-63
2023/05/29 14:41:31;;;;;;;7.40;4.50;;;;;;;;;;9512101;30;20059;-64
2023/05/29 14:46:25;;;;;;;4.88;3.83;;;;;;;;;;9505854;30;20066;-64
2023/05/29 14:51:20;;;;;;;10.43;4.68;;;;;;;;;;9509514;30;20067;-64
2023/05/29 14:56:14;;;;;;;5.93;3.85;;;;;;;;;;9510373;30;20067;-63
2023/05/29 15:01:07;;;;;;;6.88;4.68;;;;;;;;;;9501928;30;20462;-63
2023/05/29 15:06:01;;;;;;;5.80;4.25;;;;;;;;;;9507774;30;20056;-64
2023/05/29 15:10:55;;;;;;;9.07;5.18;;;;;;;;;;9509115;30;20052;-63
2023/05/29 15:15:49;;;;;;;6.32;4.57;;;;;;;;;;9512873;30;20139;-63
2023/05/29 15:20:43;;;;;;;12.45;5.68;;;;;;;;;;9509077;30;20129;-63
2023/05/29 15:25:37;;;;;;;9.48;4.68;;;;;;;;;;9500125;30;20420;-63
2023/05/29 15:30:30;;;;;;;8.20;4.65;;;;;;;;;;9504193;29;20087;-63
2023/05/29 15:35:24;;;;;;;7.18;4.57;;;;;;;;;;9502433;30;20068;-63
2023/05/29 15:40:17;;;;;;;5.93;4.35;;;;;;;;;;9505361;30;20432;-63
2023/05/29 15:45:11;;;;;;;8.50;4.50;;;;;;;;;;9503975;30;20087;-62
2023/05/29 15:50:06;;;;;;;9.27;4.40;;;;;;;;;;9500076;30;20530;-63
2023/05/29 15:54:59;;;;;;;9.63;4.28;;;;;;;;;;9506562;30;20126;-63
2023/05/29 15:59:55;;;;;;;7.65;4.80;;;;;;;;;;9521981;30;20056;-63
2023/05/29 16:04:48;;;;;;;9.55;5.13;;;;;;;;;;9502692;30;20056;-62
2023/05/29 16:09:59;;;;;;;9.55;4.13;;;;;;;;;;9500036;30;20052;-63
2023/05/29 16:14:52;;;;;;;7.53;4.07;;;;;;;;;;9507688;30;20044;-64
2023/05/29 16:19:44;;;;;;;10.15;5.13;;;;;;;;;;9504574;30;20110;-66
2023/05/29 16:24:39;;;;;;;10.02;4.80;;;;;;;;;;9505970;30;20062;-63
2023/05/29 16:29:32;;;;;;;6.95;5.38;;;;;;;;;;9498326;30;20082;-63
2023/05/29 16:34:26;;;;;;;10.18;4.47;;;;;;;;;;9506105;30;20138;-64
2023/05/29 16:39:21;;;;;;;6.15;4.53;;;;;;;;;;9507527;30;20548;-63
2023/05/29 16:44:15;;;;;;;7.35;3.95;;;;;;;;;;9495952;30;20044;-70
2023/05/29 16:49:10;;;;;;;6.97;3.90;;;;;;;;;;9503487;30;20567;-70
2023/05/29 16:54:05;;;;;;;6.45;4.50;;;;;;;;;;9517839;30;20079;-69
2023/05/29 16:59:00;;;;;;;6.43;4.22;;;;;;;;;;9486404;30;20075;-70
2023/05/29 17:03:54;;;;;;;4.78;3.85;;;;;;;;;;9498211;30;20143;-70
2023/05/29 17:08:48;;;;;;;5.72;4.75;;;;;;;;;;9492810;30;20063;-69
2023/05/29 17:13:41;;;;;;;7.75;4.85;;;;;;;;;;9486776;30;20064;-70
2023/05/29 17:18:33;;;;;;;6.82;4.47;;;;;;;;;;9502306;30;20496;-64
2023/05/29 17:23:27;;;;;;;6.53;4.30;;;;;;;;;;9489509;30;20110;-70
2023/05/29 17:28:20;;;;;;;7.30;4.40;;;;;;;;;;9496029;30;20051;-70
2023/05/29 17:33:15;;;;;;;8.60;5.03;;;;;;;;;;9498645;30;20113;-69
2023/05/29 17:38:10;;;;;;;8.43;4.50;;;;;;;;;;9495121;30;20532;-70
2023/05/29 17:43:03;;;;;;;8.75;4.95;;;;;;;;;;9495657;30;20548;-70
2023/05/29 17:47:57;;;;;;;9.10;4.90;;;;;;;;;;9500099;30;20382;-70
2023/05/29 17:52:49;;;;;;;7.38;4.72;;;;;;;;;;9504746;30;20047;-70
2023/05/29 17:57:43;;;;;;;4.78;4.25;;;;;;;;;;9498471;30;20501;-70
2023/05/29 18:02:37;;;;;;;8.20;5.25;;;;;;;;;;9506927;30;20083;-73
2023/05/29 18:07:30;;;;;;;10.40;5.50;;;;;;;;;;9495034;30;20055;-72
2023/05/29 18:12:23;;;;;;;4.95;4.20;;;;;;;;;;9505753;30;20072;-73
2023/05/29 18:17:29;;;;;;;7.18;5.32;;;;;;;;;;9498893;30;20475;-71
2023/05/29 18:22:23;;;;;;;10.15;5.25;;;;;;;;;;9499556;30;20080;-71
2023/05/29 18:27:17;;;;;;;23.25;5.55;;;;;;;;;;9504120;30;20086;-71
2023/05/29 18:32:11;;;;;;;19.52;4.70;;;;;;;;;;9495187;30;20103;-70
2023/05/29 18:37:05;;;;;;;13.30;5.82;;;;;;;;;;9496419;30;20109;-70
2023/05/29 18:41:58;;;;;;;8.70;6.30;;;;;;;;;;9510218;30;20455;-70
2023/05/29 18:46:53;;;;;;;7.82;6.57;;;;;;;;;;9505745;30;20056;-70
2023/05/29 18:51:47;;;;;;;7.18;5.30;;;;;;;;;;9512524;30;20059;-71
2023/05/29 18:56:40;;;;;;;8.98;4.63;;;;;;;;;;9509114;30;20060;-72
2023/05/29 19:01:34;;;;;;;6.78;4.80;;;;;;;;;;9512586;30;20074;-67
2023/05/29 19:06:31;;;;;;;7.70;5.45;;;;;;;;;;9510080;30;20052;-67
2023/05/29 19:11:25;;;;;;;16.08;5.65;;;;;;;;;;9504660;30;20129;-68
2023/05/29 19:16:20;;;;;;;7.70;5.00;;;;;;;;;;9519564;30;20056;-68
2023/05/29 19:21:14;;;;;;;8.82;5.90;;;;;;;;;;9512574;30;20084;-68
2023/05/29 19:26:08;;;;;;;7.97;6.00;;;;;;;;;;9509465;30;20094;-70
2023/05/29 19:31:01;;;;;;;7.25;4.72;;;;;;;;;;9508206;30;20048;-73
2023/05/29 19:35:56;;;;;;;9.13;5.20;;;;;;;;;;9505820;30;20067;-73
2023/05/29 19:40:50;;;;;;;9.57;5.75;;;;;;;;;;9503593;30;20056;-73
2023/05/29 19:45:44;;;;;;;7.63;5.47;;;;;;;;;;9505046;30;20074;-73
2023/05/29 19:50:47;;;;;;;14.00;6.75;;;;;;;;;;9506592;30;20574;-73
2023/05/29 19:55:41;;;;;;;12.20;5.97;;;;;;;;;;9508393;30;20056;-71
2023/05/29 20:00:34;;;;;;;6.72;5.20;;;;;;;;;;9499053;30;20491;-71
2023/05/29 20:05:27;;;;;;;8.70;5.65;;;;;;;;;;9498932;30;20152;-71
2023/05/29 20:10:21;;;;;;;12.70;6.22;;;;;;;;;;9508542;30;20505;-74
2023/05/29 20:15:15;;;;;;;12.75;6.38;;;;;;;;;;9508520;30;20052;-72
2023/05/29 20:20:09;;;;;;;14.00;6.30;;;;;;;;;;9508236;30;20066;-75
2023/05/29 20:25:03;;;;;;;7.32;6.00;;;;;;;;;;9511179;29;20063;-75
2023/05/29 20:29:56;;;;;;;11.43;5.90;;;;;;;;;;9506255;30;20102;-73
2023/05/29 20:34:50;;;;;;;11.30;5.90;;;;;;;;;;9506843;30;20475;-72
2023/05/29 20:39:43;;;;;;;9.57;6.22;;;;;;;;;;9503404;30;20142;-73
2023/05/29 20:44:39;;;;;;;10.07;5.90;;;;;;;;;;9510151;30;20083;-73
2023/05/29 20:49:33;;;;;;;9.48;6.68;;;;;;;;;;9501287;30;20087;-74
2023/05/29 20:54:30;;;;;;;12.93;7.32;;;;;;;;;;9501004;30;20127;-74
2023/05/29 20:59:23;;;;;;;10.80;6.63;;;;;;;;;;9505043;30;20047;-74
2023/05/29 21:04:16;;;;;;;12.98;6.97;;;;;;;;;;9500763;30;20047;-73
2023/05/29 21:09:09;;;;;;;13.25;6.25;;;;;;;;;;9507489;30;20052;-76
2023/05/29 21:14:03;;;;;;;21.05;7.25;;;;;;;;;;9497016;30;20059;-73
2023/05/29 21:18:57;;;;;;;7.90;6.82;;;;;;;;;;9483792;30;20056;-73
2023/05/29 21:23:51;;;;;;;11.82;7.03;;;;;;;;;;9484098;30;20129;-72
2023/05/29 21:28:46;;;;;;;8.07;6.10;;;;;;;;;;9483265;30;20106;-75
2023/05/29 21:33:46;;;;;;;12.13;6.65;;;;;;;;;;9482976;30;20073;-73
2023/05/29 21:38:42;;;;;;;11.23;7.03;;;;;;;;;;9490939;30;20056;-75
2023/05/29 21:43:36;;;;;;;8.30;6.63;;;;;;;;;;9489862;30;20052;-75
2023/05/29 21:48:30;;;;;;;13.07;7.55;;;;;;;;;;9494349;30;20497;-74
2023/05/29 21:53:24;;;;;;;12.18;6.15;;;;;;;;;;9493919;30;20086;-73
2023/05/29 21:58:17;;;;;;;13.52;6.30;;;;;;;;;;9490780;30;20462;-73
2023/05/29 22:03:12;;;;;;;9.50;6.80;;;;;;;;;;9499454;30;20134;-73
2023/05/29 22:08:06;;;;;;;8.85;6.22;;;;;;;;;;9503186;30;20471;-74
2023/05/29 22:13:04;;;;;;;9.45;6.85;;;;;;;;;;9504637;30;20087;-74
2023/05/29 22:17:58;;;;;;;10.20;7.07;;;;;;;;;;9510567;30;20055;-73
2023/05/29 22:22:52;;;;;;;11.70;6.93;;;;;;;;;;9510901;29;20056;-73
2023/05/29 22:27:57;;;;;;;8.73;6.53;;;;;;;;;;9507796;30;20056;-73
2023/05/29 22:32:51;;;;;;;8.82;6.85;;;;;;;;;;9508170;30;20126;-73
2023/05/29 22:37:45;;;;;;;7.97;6.43;;;;;;;;;;9522413;30;20417;-73
2023/05/29 22:42:39;;;;;;;8.55;5.95;;;;;;;;;;9509255;30;20471;-73
2023/05/29 22:47:33;;;;;;;10.18;6.05;;;;;;;;;;9508588;30;20551;-73
2023/05/29 22:52:27;;;;;;;9.30;6.90;;;;;;;;;;9501650;30;20060;-73
2023/05/29 22:57:21;;;;;;;9.20;7.50;;;;;;;;;;9511296;30;20068;-73
2023/05/29 23:02:15;;;;;;;13.15;7.07;;;;;;;;;;9506885;30;20060;-74
2023/05/29 23:07:12;;;;;;;13.10;7.05;;;;;;;;;;9506986;30;20128;-74
2023/05/29 23:12:09;;;;;;;10.15;6.90;;;;;;;;;;9507492;30;20111;-74
2023/05/29 23:17:03;;;;;;;13.98;6.90;;;;;;;;;;9507671;30;20076;-72
2023/05/29 23:21:58;;;;;;;9.43;8.05;;;;;;;;;;9504653;30;20429;-72
2023/05/29 23:26:54;;;;;;;12.70;6.75;;;;;;;;;;9507152;30;20074;-72
2023/05/29 23:31:48;;;;;;;10.88;7.55;;;;;;;;;;9505022;30;20068;-72
2023/05/29 23:36:41;;;;;;;9.68;6.88;;;;;;;;;;9509537;30;20109;-72
2023/05/29 23:41:36;;;;;;;11.95;7.07;;;;;;;;;;9485832;30;20057;-72
2023/05/29 23:46:30;;;;;;;8.38;6.93;;;;;;;;;;9505292;30;20052;-72
2023/05/29 23:51:25;;;;;;;10.52;6.55;;;;;;;;;;9519731;30;20087;-72
2023/05/29 23:56:19;;;;;;;8.13;5.93;;;;;;;;;;9506588;30;20052;-72
